Time;durP1;ratioP1;P1;durP2;ratioP2;P2;SDS_P1;SDS_P2;PMS_P1;PMS_P2;Temp;Humidity;BMP_temperature;BMP_pressure;BME280_temperature;BME280_humidity;BME280_pressure;Samples;Min_cycle;Max_cycle;Signal;HPM_P1;HPM_P2
2022/06/29 00:02:20;;;;;;;24.23;22.83;;;19.30;85.10;;;;;;4963507;28;20545;-69
2022/06/29 00:04:47;;;;;;;24.73;23.23;;;19.30;85.20;;;;;;4969577;28;20979;-70
2022/06/29 00:07:14;;;;;;;24.30;23.00;;;19.20;85.40;;;;;;4969273;28;20542;-69
2022/06/29 00:09:41;;;;;;;24.00;22.70;;;19.20;85.40;;;;;;4968970;28;20483;-67
2022/06/29 00:12:08;;;;;;;24.40;23.10;;;19.20;85.30;;;;;;4969609;28;20518;-67
2022/06/29 00:14:41;;;;;;;24.27;22.87;;;19.00;85.80;;;;;;4969866;28;20483;-67
2022/06/29 00:17:09;;;;;;;23.17;22.07;;;18.90;86.10;;;;;;4968541;28;20542;-68
2022/06/29 00:19:36;;;;;;;23.80;22.60;;;18.80;86.40;;;;;;4970121;28;20473;-67
2022/06/29 00:22:04;;;;;;;23.83;22.47;;;18.80;86.50;;;;;;4969276;28;20491;-67
2022/06/29 00:24:31;;;;;;;23.67;22.47;;;18.80;86.50;;;;;;4968383;28;20495;-67
2022/06/29 00:26:58;;;;;;;23.90;22.60;;;18.70;86.70;;;;;;4969033;28;20554;-67
2022/06/29 00:29:25;;;;;;;24.20;22.80;;;18.70;86.80;;;;;;4966146;28;20550;-67
2022/06/29 00:31:54;;;;;;;22.90;21.50;;;18.80;86.60;;;;;;4967785;28;20483;-68
2022/06/29 00:34:21;;;;;;;23.53;22.23;;;18.70;86.90;;;;;;4965292;28;20957;-67
2022/06/29 00:36:48;;;;;;;22.73;21.53;;;18.70;87.20;;;;;;4969443;28;20475;-67
2022/06/29 00:39:15;;;;;;;22.60;21.50;;;18.60;87.40;;;;;;4969416;28;20550;-67
2022/06/29 00:41:43;;;;;;;23.00;21.80;;;18.70;87.20;;;;;;4968998;28;21032;-67
2022/06/29 00:44:14;;;;;;;23.27;21.87;;;18.60;87.30;;;;;;4970102;28;21011;-67
2022/06/29 00:46:47;;;;;;;22.93;21.73;;;18.60;87.50;;;;;;4968190;28;20546;-67
2022/06/29 00:49:17;;;;;;;23.30;22.00;;;18.60;87.30;;;;;;4969037;28;20463;-69
2022/06/29 00:51:47;;;;;;;24.20;22.80;;;18.60;87.50;;;;;;4969298;28;20471;-71
2022/06/29 00:54:17;;;;;;;22.43;21.33;;;18.50;87.80;;;;;;4969845;28;20479;-69
2022/06/29 00:56:44;;;;;;;23.10;21.80;;;18.50;88.00;;;;;;4968427;28;20558;-69
2022/06/29 00:59:14;;;;;;;23.23;21.93;;;18.50;88.20;;;;;;4968301;28;20463;-69
2022/06/29 01:01:42;;;;;;;23.03;21.83;;;18.50;88.00;;;;;;4966566;28;20870;-71
2022/06/29 01:04:09;;;;;;;23.40;22.10;;;18.50;87.60;;;;;;4963664;28;20886;-69
2022/06/29 01:06:38;;;;;;;22.90;21.60;;;18.50;87.90;;;;;;4965951;28;21036;-70
2022/06/29 01:09:05;;;;;;;24.30;22.70;;;18.40;88.10;;;;;;4969135;28;20538;-69
2022/06/29 01:11:32;;;;;;;22.70;21.50;;;18.50;88.00;;;;;;4967356;28;20475;-69
2022/06/29 01:13:59;;;;;;;22.83;21.53;;;18.40;88.10;;;;;;4965361;28;20562;-69
2022/06/29 01:16:27;;;;;;;23.00;21.70;;;18.40;88.10;;;;;;4964520;28;20546;-69
2022/06/29 01:18:54;;;;;;;24.00;22.67;;;18.30;88.50;;;;;;4968243;28;20927;-70
2022/06/29 01:21:23;;;;;;;23.07;21.73;;;18.30;88.70;;;;;;4968697;28;20454;-71
2022/06/29 01:23:51;;;;;;;22.97;21.67;;;18.30;88.70;;;;;;4965271;28;20467;-72
2022/06/29 01:26:18;;;;;;;21.63;20.43;;;18.30;88.90;;;;;;4963758;28;20455;-70
2022/06/29 01:28:46;;;;;;;23.73;22.43;;;18.30;88.90;;;;;;4967650;28;20919;-69
2022/06/29 01:31:17;;;;;;;23.70;22.17;;;18.30;88.80;;;;;;4969541;28;20483;-69
2022/06/29 01:33:45;;;;;;;23.80;22.60;;;18.30;88.60;;;;;;4966945;28;20555;-69
2022/06/29 01:36:12;;;;;;;23.70;22.43;;;18.30;88.60;;;;;;4967867;28;20470;-69
2022/06/29 01:38:40;;;;;;;23.77;22.40;;;18.30;88.50;;;;;;4966395;28;20502;-69
2022/06/29 01:41:10;;;;;;;24.00;22.60;;;18.30;88.60;;;;;;4968142;28;20506;-70
2022/06/29 01:43:38;;;;;;;23.43;22.13;;;18.30;88.70;;;;;;4967576;28;21015;-69
2022/06/29 01:46:05;;;;;;;23.60;21.77;;;18.20;88.70;;;;;;4968277;28;20477;-69
2022/06/29 01:48:32;;;;;;;24.47;22.83;;;18.20;88.80;;;;;;4968595;28;20586;-71
2022/06/29 01:50:59;;;;;;;23.33;22.03;;;18.20;88.90;;;;;;4969165;28;20486;-69
2022/06/29 01:53:26;;;;;;;24.37;22.80;;;18.20;88.80;;;;;;4966692;28;20482;-70
2022/06/29 01:55:53;;;;;;;23.40;22.20;;;18.30;88.60;;;;;;4967732;28;20555;-69
2022/06/29 01:58:21;;;;;;;23.47;22.10;;;18.20;88.80;;;;;;4969006;28;20517;-69
2022/06/29 02:00:48;;;;;;;24.00;22.67;;;18.20;89.00;;;;;;4966585;28;20543;-69
2022/06/29 02:03:15;;;;;;;24.00;22.50;;;18.20;88.80;;;;;;4965296;28;20818;-69
2022/06/29 02:05:42;;;;;;;23.07;21.77;;;18.10;89.00;;;;;;4967914;28;21138;-69
2022/06/29 02:08:09;;;;;;;23.20;22.00;;;18.10;89.00;;;;;;4967762;28;20492;-69
2022/06/29 02:10:36;;;;;;;23.50;22.20;;;18.10;89.20;;;;;;4966437;28;20469;-69
2022/06/29 02:13:03;;;;;;;23.80;22.40;;;18.10;89.20;;;;;;4967847;28;20561;-69
2022/06/29 02:15:31;;;;;;;22.60;21.33;;;18.10;89.20;;;;;;4967393;28;20497;-69
2022/06/29 02:17:58;;;;;;;23.77;22.40;;;18.20;88.80;;;;;;4958746;28;20581;-70
2022/06/29 02:20:25;;;;;;;24.17;22.73;;;18.10;89.00;;;;;;4966444;28;20554;-71
2022/06/29 02:22:52;;;;;;;23.47;22.00;;;18.10;88.80;;;;;;4967391;28;22424;-70
2022/06/29 02:25:19;;;;;;;23.53;22.23;;;18.10;88.70;;;;;;4967890;28;20562;-69
2022/06/29 02:27:47;;;;;;;23.43;22.13;;;18.10;88.80;;;;;;4966259;28;20659;-70
2022/06/29 02:30:15;;;;;;;23.70;22.30;;;18.10;89.00;;;;;;4968263;28;21013;-67
2022/06/29 02:35:28;;;;;;;23.50;22.20;;;18.00;89.50;;;;;;4965676;28;20454;-67
2022/06/29 02:37:55;;;;;;;23.87;22.57;;;18.00;89.70;;;;;;4968832;28;21028;-67
2022/06/29 02:40:22;;;;;;;23.83;22.47;;;18.00;89.70;;;;;;4967675;28;20465;-67
2022/06/29 02:42:49;;;;;;;23.20;22.00;;;18.00;89.80;;;;;;4968124;28;20606;-67
2022/06/29 02:45:32;;;;;;;24.07;22.77;;;17.90;89.90;;;;;;4967975;28;20632;-67
2022/06/29 02:48:15;;;;;;;23.97;22.57;;;18.00;89.70;;;;;;4965316;28;20479;-67
2022/06/29 02:51:15;;;;;;;23.23;22.03;;;18.00;89.60;;;;;;4969477;28;20470;-67
2022/06/29 03:03:23;;;;;;;;;;;;;;;;;;;;;
2022/06/29 03:06:20;;;;;;;23.10;21.90;;;17.80;90.10;;;;;;4969365;28;20478;-67
2022/06/29 03:14:57;;;;;;;30.27;28.57;;;17.80;90.40;;;;;;4948948;28;20626;-67
2022/06/29 03:17:33;;;;;;;24.97;23.63;;;17.80;90.40;;;;;;4966767;28;20951;-67
2022/06/29 03:20:33;;;;;;;25.63;24.13;;;17.80;90.30;;;;;;4966618;28;20497;-67
2022/06/29 03:32:52;;;;;;;24.90;23.50;;;17.80;90.40;;;;;;4855118;29;20576;-67
2022/06/29 03:38:30;;;;;;;24.37;23.07;;;17.80;90.10;;;;;;4921237;29;21058;-67
2022/06/29 03:40:56;;;;;;;27.27;25.70;;;17.80;89.90;;;;;;4965368;28;20466;-67
2022/06/29 03:43:23;;;;;;;27.47;25.97;;;17.80;89.90;;;;;;4970141;28;20538;-67
2022/06/29 03:45:50;;;;;;;24.33;22.90;;;17.90;90.00;;;;;;4969457;28;20538;-69
2022/06/29 03:48:18;;;;;;;23.63;22.07;;;17.90;89.90;;;;;;4970917;28;20514;-69
2022/06/29 03:50:46;;;;;;;23.40;22.10;;;17.90;89.80;;;;;;4969267;28;20469;-69
2022/06/29 03:53:14;;;;;;;25.20;23.60;;;17.90;89.80;;;;;;4970505;28;21080;-70
2022/06/29 03:55:41;;;;;;;28.03;26.43;;;17.90;90.10;;;;;;4970125;28;20498;-70
2022/06/29 03:58:08;;;;;;;24.13;22.93;;;17.90;90.30;;;;;;4970177;28;20574;-70
2022/06/29 04:00:36;;;;;;;28.67;27.07;;;17.90;90.40;;;;;;4970533;28;20466;-69
2022/06/29 04:03:03;;;;;;;28.10;26.60;;;18.00;90.20;;;;;;4968446;28;20965;-71
2022/06/29 04:05:30;;;;;;;24.53;23.03;;;18.10;89.80;;;;;;4970105;28;20514;-71
2022/06/29 04:07:58;;;;;;;25.43;23.93;;;18.10;89.50;;;;;;4969629;28;20864;-69
2022/06/29 04:10:25;;;;;;;26.00;24.50;;;18.10;89.00;;;;;;4970268;28;20463;-70
2022/06/29 04:12:52;;;;;;;26.20;24.63;;;18.20;88.70;;;;;;4969878;28;20482;-70
2022/06/29 04:15:19;;;;;;;25.10;23.70;;;18.30;88.40;;;;;;4969761;28;20981;-70
2022/06/29 04:17:46;;;;;;;26.20;24.80;;;18.40;88.40;;;;;;4969544;28;20968;-70
2022/06/29 04:21:05;;;;;;;25.70;24.20;;;18.50;88.10;;;;;;4970829;28;20553;-69
2022/06/29 04:23:03;;;;;;;28.67;27.17;;;18.60;87.50;;;;;;4969606;28;20918;-71
2022/06/29 04:25:30;;;;;;;25.83;24.33;;;18.60;87.00;;;;;;4969630;28;20539;-70
2022/06/29 04:27:57;;;;;;;25.20;23.80;;;18.70;87.20;;;;;;4967768;28;20479;-70
2022/06/29 04:30:24;;;;;;;26.03;24.50;;;18.80;86.80;;;;;;4970253;28;21104;-70
2022/06/29 04:32:51;;;;;;;29.40;27.53;;;18.80;86.60;;;;;;4969300;28;20481;-67
2022/06/29 04:35:18;;;;;;;26.80;25.00;;;18.90;86.60;;;;;;4969707;28;20578;-67
2022/06/29 04:37:45;;;;;;;31.77;29.67;;;19.00;86.20;;;;;;4970017;28;20570;-68
2022/06/29 04:40:14;;;;;;;26.80;25.20;;;19.20;85.80;;;;;;4969193;28;20539;-68
2022/06/29 04:42:41;;;;;;;27.47;25.60;;;19.30;85.50;;;;;;4969358;28;20470;-69
2022/06/29 04:46:19;;;;;;;26.10;24.60;;;19.40;85.10;;;;;;4969637;28;20486;-71
2022/06/29 04:47:59;;;;;;;28.30;26.70;;;19.30;84.20;;;;;;4969078;28;20471;-70
2022/06/29 04:50:26;;;;;;;28.27;26.50;;;19.20;84.70;;;;;;4968242;28;20550;-69
2022/06/29 04:52:53;;;;;;;27.63;25.93;;;19.00;85.40;;;;;;4968997;28;20930;-71
2022/06/29 04:55:23;;;;;;;29.23;27.40;;;19.10;85.40;;;;;;4969533;28;20550;-69
2022/06/29 04:57:50;;;;;;;26.37;24.87;;;19.20;85.40;;;;;;4969567;28;20494;-74
2022/06/29 05:00:18;;;;;;;28.33;26.50;;;19.30;85.10;;;;;;4966627;28;20579;-73
2022/06/29 05:02:45;;;;;;;31.07;29.17;;;19.40;84.90;;;;;;4969210;28;20989;-73
2022/06/29 05:05:11;;;;;;;26.40;24.90;;;19.50;84.70;;;;;;4963861;28;20542;-74
2022/06/29 05:07:38;;;;;;;27.53;25.93;;;19.70;84.10;;;;;;4969138;28;20490;-71
2022/06/29 05:10:07;;;;;;;28.03;26.43;;;19.70;83.80;;;;;;4968398;28;20519;-70
2022/06/29 05:12:38;;;;;;;30.17;28.27;;;19.90;83.40;;;;;;4969438;28;20491;-71
2022/06/29 05:15:06;;;;;;;28.17;26.60;;;20.00;83.10;;;;;;4964660;28;20957;-69
2022/06/29 05:17:36;;;;;;;29.10;27.27;;;20.00;83.00;;;;;;4961029;28;20893;-69
2022/06/29 05:20:04;;;;;;;29.37;27.37;;;19.90;83.20;;;;;;4968316;28;20538;-69
2022/06/29 05:22:31;;;;;;;31.67;29.87;;;19.80;83.40;;;;;;4966822;28;20466;-70
2022/06/29 05:24:58;;;;;;;29.80;28.10;;;19.80;83.70;;;;;;4964119;28;20575;-69
2022/06/29 05:27:25;;;;;;;32.60;30.70;;;19.90;83.80;;;;;;4969039;28;20993;-70
2022/06/29 05:29:54;;;;;;;28.43;26.43;;;19.80;84.10;;;;;;4967302;28;20469;-70
2022/06/29 05:32:21;;;;;;;29.10;27.50;;;19.90;84.40;;;;;;4967151;28;20483;-70
2022/06/29 05:34:47;;;;;;;29.50;27.50;;;20.10;83.50;;;;;;4965115;28;20652;-70
2022/06/29 05:37:14;;;;;;;27.03;25.53;;;20.20;83.50;;;;;;4968069;28;20511;-70
2022/06/29 05:39:42;;;;;;;27.90;26.30;;;20.20;83.20;;;;;;4966970;28;20476;-70
2022/06/29 05:42:10;;;;;;;28.47;26.83;;;20.30;83.20;;;;;;4964153;28;20461;-71
2022/06/29 05:44:38;;;;;;;28.87;27.17;;;20.40;82.80;;;;;;4962778;28;20492;-70
2022/06/29 05:47:07;;;;;;;30.37;28.67;;;20.50;82.30;;;;;;4967619;28;20481;-69
2022/06/29 05:49:34;;;;;;;28.30;26.80;;;20.60;82.30;;;;;;4965492;28;21392;-68
2022/06/29 05:52:01;;;;;;;28.30;26.40;;;20.70;85.10;;;;;;4967430;28;20564;-68
2022/06/29 05:54:28;;;;;;;31.47;29.63;;;20.80;82.80;;;;;;4965421;28;20473;-67
2022/06/29 05:56:55;;;;;;;29.50;27.87;;;21.00;81.40;;;;;;4969129;28;20489;-70
2022/06/29 05:59:22;;;;;;;33.00;31.10;;;21.00;80.70;;;;;;4969648;28;20550;-68
2022/06/29 06:01:49;;;;;;;30.07;28.07;;;21.20;80.50;;;;;;4968351;28;21237;-69
2022/06/29 06:04:17;;;;;;;30.10;28.33;;;21.40;79.20;;;;;;4969100;28;20487;-70
2022/06/29 06:06:45;;;;;;;30.80;28.80;;;21.60;79.80;;;;;;4969502;28;20550;-68
2022/06/29 06:09:12;;;;;;;33.73;31.40;;;21.70;79.00;;;;;;4969984;28;20559;-68
2022/06/29 06:11:39;;;;;;;33.27;30.60;;;21.80;78.10;;;;;;4966720;28;20554;-68
2022/06/29 06:14:06;;;;;;;31.30;29.40;;;21.90;77.70;;;;;;4970364;28;20518;-68
2022/06/29 06:16:33;;;;;;;31.87;29.83;;;22.00;77.00;;;;;;4968915;28;20554;-68
2022/06/29 06:19:00;;;;;;;33.43;31.27;;;22.10;76.70;;;;;;4970219;28;20551;-68
2022/06/29 06:21:28;;;;;;;32.67;30.87;;;22.30;76.00;;;;;;4967592;28;20522;-68
2022/06/29 06:23:56;;;;;;;31.40;29.40;;;22.50;75.60;;;;;;4970541;28;20457;-68
2022/06/29 06:26:23;;;;;;;33.63;31.63;;;22.80;75.00;;;;;;4969764;28;20473;-68
2022/06/29 06:28:52;;;;;;;34.90;32.63;;;23.20;74.20;;;;;;4974154;28;21224;-68
2022/06/29 06:31:19;;;;;;;31.87;29.97;;;23.60;72.80;;;;;;4971242;28;20494;-68
2022/06/29 06:33:45;;;;;;;32.80;30.80;;;23.90;71.90;;;;;;4973732;28;20518;-68
2022/06/29 06:36:12;;;;;;;34.63;32.40;;;24.20;70.30;;;;;;4972987;28;20603;-68
2022/06/29 06:38:41;;;;;;;31.70;29.83;;;24.40;69.60;;;;;;4973860;28;20573;-68
2022/06/29 06:41:22;;;;;;;33.47;31.50;;;24.50;69.20;;;;;;4966467;28;20467;-68
2022/06/29 06:43:50;;;;;;;32.77;30.77;;;24.60;68.90;;;;;;4973941;28;21028;-68
2022/06/29 06:46:17;;;;;;;33.07;31.00;;;24.70;68.60;;;;;;4972818;28;20549;-68
2022/06/29 06:48:44;;;;;;;35.77;33.67;;;24.70;68.90;;;;;;4973597;28;20475;-68
2022/06/29 06:51:11;;;;;;;32.63;30.60;;;24.70;68.70;;;;;;4971181;28;20458;-68
2022/06/29 06:53:39;;;;;;;35.60;33.50;;;24.60;68.90;;;;;;4973708;28;20834;-68
2022/06/29 06:56:07;;;;;;;32.97;31.17;;;24.60;69.20;;;;;;4971310;28;20455;-68
2022/06/29 06:58:35;;;;;;;33.70;31.50;;;24.60;69.10;;;;;;4973287;28;20490;-68
2022/06/29 07:01:04;;;;;;;32.17;29.80;;;24.40;69.20;;;;;;4967947;28;20486;-69
2022/06/29 07:03:32;;;;;;;33.90;32.00;;;24.20;69.80;;;;;;4973469;28;20489;-68
2022/06/29 07:06:00;;;;;;;31.70;29.90;;;24.00;70.30;;;;;;4972469;28;20481;-68
2022/06/29 07:08:27;;;;;;;31.43;29.37;;;24.00;70.50;;;;;;4973260;28;20485;-68
2022/06/29 07:10:56;;;;;;;30.80;29.10;;;24.10;70.30;;;;;;4970426;28;20482;-68
2022/06/29 07:13:22;;;;;;;31.30;29.50;;;24.20;69.80;;;;;;4973140;28;20490;-68
2022/06/29 07:15:49;;;;;;;33.70;31.83;;;24.40;69.80;;;;;;4972236;28;20553;-68
2022/06/29 07:18:16;;;;;;;31.80;29.80;;;24.60;69.40;;;;;;4972136;28;20553;-68
2022/06/29 07:20:43;;;;;;;31.10;29.40;;;24.70;68.10;;;;;;4970497;28;20471;-68
2022/06/29 07:23:10;;;;;;;31.50;29.80;;;24.80;67.50;;;;;;4972928;28;20459;-68
2022/06/29 07:25:37;;;;;;;33.80;31.90;;;24.90;67.10;;;;;;4972298;28;20530;-68
2022/06/29 07:28:08;;;;;;;31.00;29.23;;;25.00;65.50;;;;;;4973049;28;20605;-68
2022/06/29 07:30:35;;;;;;;32.10;30.27;;;24.90;65.80;;;;;;4970513;28;20886;-68
2022/06/29 07:33:03;;;;;;;35.50;33.43;;;24.90;65.90;;;;;;4970591;28;20539;-68
2022/06/29 07:35:30;;;;;;;33.90;32.00;;;24.90;66.40;;;;;;4971515;28;20459;-68
2022/06/29 07:37:58;;;;;;;32.17;30.17;;;24.90;66.60;;;;;;4968799;28;20577;-68
2022/06/29 07:40:25;;;;;;;33.67;31.67;;;25.10;66.40;;;;;;4971750;28;20463;-68
2022/06/29 07:42:52;;;;;;;34.03;31.80;;;25.20;66.50;;;;;;4972283;28;20969;-68
2022/06/29 07:45:21;;;;;;;34.83;32.67;;;25.20;66.60;;;;;;4971254;28;20480;-68
2022/06/29 07:47:50;;;;;;;36.83;34.50;;;25.00;67.10;;;;;;4972338;28;21001;-68
2022/06/29 07:50:17;;;;;;;33.97;31.50;;;25.00;67.40;;;;;;4971586;28;20459;-68
2022/06/29 07:52:44;;;;;;;33.23;31.33;;;25.00;67.70;;;;;;4970996;28;20458;-68
2022/06/29 07:55:11;;;;;;;32.70;30.80;;;25.00;67.60;;;;;;4971656;28;20491;-68
2022/06/29 07:57:38;;;;;;;34.00;32.00;;;25.20;67.30;;;;;;4971825;28;20563;-68
2022/06/29 08:00:07;;;;;;;34.00;31.90;;;25.20;66.40;;;;;;4969054;28;20562;-68
2022/06/29 08:02:35;;;;;;;35.60;33.47;;;24.90;67.30;;;;;;4968430;28;20472;-68
2022/06/29 08:05:02;;;;;;;36.17;33.90;;;24.90;66.60;;;;;;4968629;28;20464;-68
2022/06/29 08:07:30;;;;;;;36.13;33.83;;;25.00;66.80;;;;;;4969941;28;21326;-68
2022/06/29 08:09:56;;;;;;;36.53;34.50;;;25.00;66.30;;;;;;4971983;28;20455;-70
2022/06/29 08:12:23;;;;;;;32.20;30.30;;;25.10;66.30;;;;;;4970757;28;20469;-68
2022/06/29 08:14:50;;;;;;;32.93;31.03;;;25.10;66.70;;;;;;4971805;28;20567;-68
2022/06/29 08:17:17;;;;;;;37.07;34.80;;;25.20;67.10;;;;;;4970174;28;20587;-68
2022/06/29 08:19:46;;;;;;;34.17;32.00;;;25.30;66.40;;;;;;4971603;28;20513;-68
2022/06/29 08:22:13;;;;;;;34.30;32.20;;;25.40;67.10;;;;;;4970405;28;20466;-68
2022/06/29 08:24:40;;;;;;;32.93;30.97;;;25.50;66.20;;;;;;4971529;28;20475;-68
2022/06/29 08:27:07;;;;;;;34.50;32.60;;;25.50;66.20;;;;;;4971185;28;20570;-68
2022/06/29 08:29:34;;;;;;;33.10;31.20;;;25.50;65.90;;;;;;4970980;28;20582;-68
2022/06/29 08:32:02;;;;;;;36.00;33.87;;;25.60;65.80;;;;;;4970158;28;20905;-68
2022/06/29 08:34:30;;;;;;;37.40;35.30;;;25.70;65.90;;;;;;4971046;28;20921;-68
2022/06/29 08:36:59;;;;;;;33.87;31.67;;;25.70;65.50;;;;;;4969945;28;20492;-68
2022/06/29 08:39:27;;;;;;;38.10;35.70;;;25.90;64.80;;;;;;4971235;28;20459;-68
2022/06/29 08:41:56;;;;;;;37.27;34.97;;;25.90;64.40;;;;;;4969527;28;20457;-68
2022/06/29 08:44:23;;;;;;;34.03;31.80;;;26.00;64.50;;;;;;4970712;28;20465;-68
2022/06/29 08:46:50;;;;;;;36.43;34.20;;;26.10;64.60;;;;;;4969759;28;21057;-68
2022/06/29 08:49:17;;;;;;;34.73;32.63;;;26.20;64.60;;;;;;4969656;28;20577;-68
2022/06/29 08:51:45;;;;;;;39.10;36.90;;;26.40;64.10;;;;;;4968774;28;20492;-68
2022/06/29 08:54:15;;;;;;;36.63;34.33;;;26.20;64.30;;;;;;4971053;28;20494;-68
2022/06/29 08:56:43;;;;;;;34.23;31.83;;;26.30;64.30;;;;;;4968287;28;20469;-68
2022/06/29 08:59:11;;;;;;;34.50;32.43;;;26.40;64.30;;;;;;4970739;28;20461;-68
2022/06/29 09:01:38;;;;;;;33.13;30.93;;;26.50;63.90;;;;;;4969349;28;20973;-68
2022/06/29 09:04:08;;;;;;;36.37;34.27;;;26.70;63.40;;;;;;4971131;28;20481;-68
2022/06/29 09:06:35;;;;;;;34.80;32.57;;;26.80;63.30;;;;;;4969623;28;20467;-68
2022/06/29 09:09:02;;;;;;;36.70;33.97;;;26.90;62.80;;;;;;4970780;28;20797;-68
2022/06/29 09:11:31;;;;;;;34.90;32.60;;;27.00;62.10;;;;;;4968437;28;20465;-68
2022/06/29 09:14:15;;;;;;;35.10;33.00;;;27.10;61.60;;;;;;4970765;28;20486;-68
2022/06/29 09:16:53;;;;;;;37.00;34.80;;;26.90;61.90;;;;;;4967752;28;20465;-68
2022/06/29 09:19:21;;;;;;;38.50;36.10;;;26.70;62.40;;;;;;4970275;28;20489;-69
2022/06/29 09:21:48;;;;;;;33.10;31.10;;;26.70;62.90;;;;;;4968935;28;20518;-68
2022/06/29 09:24:16;;;;;;;33.50;31.40;;;26.80;62.80;;;;;;4970824;28;20546;-68
2022/06/29 09:26:48;;;;;;;36.37;34.17;;;26.90;62.70;;;;;;4968569;28;20489;-68
2022/06/29 09:29:21;;;;;;;36.80;34.70;;;27.20;62.10;;;;;;4970618;28;20517;-68
2022/06/29 09:32:16;;;;;;;38.13;35.73;;;27.40;61.60;;;;;;4967749;28;20538;-68
2022/06/29 09:34:47;;;;;;;36.43;34.13;;;27.70;61.30;;;;;;4931266;28;20494;-68
2022/06/29 09:37:15;;;;;;;34.07;31.77;;;28.00;61.00;;;;;;4969558;28;20575;-68
2022/06/29 09:39:44;;;;;;;36.73;34.67;;;28.20;60.30;;;;;;4969691;28;20554;-70
2022/06/29 09:42:14;;;;;;;36.00;33.73;;;28.40;59.70;;;;;;4968264;28;20474;-70
2022/06/29 09:44:41;;;;;;;34.67;32.53;;;28.60;59.90;;;;;;4970775;28;20454;-70
2022/06/29 09:47:12;;;;;;;34.77;32.57;;;28.70;59.40;;;;;;4969757;28;20495;-70
2022/06/29 09:49:39;;;;;;;34.40;32.20;;;28.80;59.00;;;;;;4970134;28;20455;-70
2022/06/29 09:52:07;;;;;;;34.83;32.73;;;28.70;58.60;;;;;;4968063;28;20469;-69
2022/06/29 09:54:40;;;;;;;33.17;31.00;;;28.80;57.50;;;;;;4968337;28;20490;-70
2022/06/29 09:57:09;;;;;;;33.70;31.63;;;28.70;57.70;;;;;;4966059;28;20997;-69
2022/06/29 10:02:42;;;;;;;37.30;34.60;;;27.00;61.20;;;;;;4969820;28;20525;-69
2022/06/29 10:05:11;;;;;;;33.17;31.20;;;26.70;62.30;;;;;;4968751;28;20510;-70
2022/06/29 10:07:40;;;;;;;39.00;36.60;;;26.80;62.50;;;;;;4969684;28;20491;-70
2022/06/29 10:10:09;;;;;;;36.30;34.13;;;26.80;62.20;;;;;;4967795;28;20455;-71
2022/06/29 10:16:09;;;;;;;34.80;32.60;;;26.90;62.20;;;;;;4968283;28;20525;-70
2022/06/29 10:19:06;;;;;;;32.73;30.43;;;26.80;62.50;;;;;;4968998;28;20550;-70
2022/06/29 10:21:34;;;;;;;34.03;32.03;;;26.70;62.40;;;;;;4959153;28;20537;-68
2022/06/29 10:24:01;;;;;;;33.67;31.33;;;26.50;63.10;;;;;;4970461;28;20552;-69
2022/06/29 10:26:46;;;;;;;33.80;31.50;;;26.40;63.40;;;;;;4968607;28;20531;-69
2022/06/29 10:29:31;;;;;;;36.10;33.90;;;26.50;63.70;;;;;;4967515;28;20463;-68
2022/06/29 10:32:24;;;;;;;31.03;29.23;;;26.30;63.80;;;;;;4969225;28;20457;-68
2022/06/29 10:35:08;;;;;;;33.10;31.00;;;26.30;64.10;;;;;;4968509;28;20481;-67
2022/06/29 10:37:48;;;;;;;33.10;30.97;;;26.50;64.40;;;;;;4967297;28;20529;-68
2022/06/29 10:40:21;;;;;;;33.60;31.53;;;26.80;63.20;;;;;;4967373;28;20457;-67
2022/06/29 10:45:43;;;;;;;34.50;32.43;;;27.10;62.20;;;;;;4968912;28;20857;-68
2022/06/29 10:48:20;;;;;;;34.03;31.83;;;26.90;62.20;;;;;;4960338;28;20490;-68
2022/06/29 10:50:47;;;;;;;33.93;31.47;;;26.90;62.20;;;;;;4968388;28;20468;-67
2022/06/29 10:53:16;;;;;;;33.23;31.30;;;26.70;62.60;;;;;;4969346;28;20991;-68
2022/06/29 10:55:45;;;;;;;34.10;31.90;;;26.80;62.30;;;;;;4969200;28;20497;-68
2022/06/29 10:58:12;;;;;;;35.97;33.83;;;26.70;62.10;;;;;;4970504;28;20613;-68
2022/06/29 11:00:41;;;;;;;33.47;31.47;;;26.50;63.00;;;;;;4966885;28;20466;-68
2022/06/29 11:03:10;;;;;;;37.63;35.17;;;26.80;62.50;;;;;;4969771;28;20467;-68
2022/06/29 11:12:01;;;;;;;33.93;31.93;;;27.20;60.90;;;;;;4968423;28;20539;-67
2022/06/29 11:13:59;;;;;;;34.60;32.50;;;27.40;61.10;;;;;;4973415;28;21000;-68
2022/06/29 11:16:31;;;;;;;34.60;32.60;;;27.80;60.50;;;;;;4962201;28;20547;-68
2022/06/29 11:18:59;;;;;;;33.23;31.17;;;28.00;59.80;;;;;;4970404;28;20925;-68
2022/06/29 11:21:31;;;;;;;35.37;33.27;;;28.40;58.90;;;;;;4972013;28;20463;-70
2022/06/29 11:24:02;;;;;;;32.03;30.00;;;28.80;59.10;;;;;;4973078;28;20866;-70
2022/06/29 11:26:30;;;;;;;37.27;35.07;;;29.30;57.40;;;;;;4971957;28;20498;-70
2022/06/29 11:28:58;;;;;;;36.63;34.23;;;29.20;56.90;;;;;;4971105;28;20557;-68
2022/06/29 11:31:26;;;;;;;33.23;30.70;;;29.30;56.70;;;;;;4971919;28;20558;-68
2022/06/29 11:33:54;;;;;;;33.50;31.57;;;29.40;56.40;;;;;;4972590;28;20467;-68
2022/06/29 11:36:23;;;;;;;33.03;31.10;;;29.30;56.40;;;;;;4971501;28;20471;-68
2022/06/29 11:38:56;;;;;;;33.07;31.07;;;29.30;56.60;;;;;;4970935;28;20577;-68
2022/06/29 11:41:25;;;;;;;32.57;30.40;;;29.40;56.20;;;;;;4971381;28;20493;-68
2022/06/29 11:44:04;;;;;;;34.93;32.60;;;29.60;56.70;;;;;;4972609;28;20989;-68
2022/06/29 11:46:33;;;;;;;33.40;31.30;;;29.60;55.40;;;;;;4970675;28;20466;-68
2022/06/29 11:51:56;;;;;;;33.90;31.90;;;29.70;55.80;;;;;;4972036;28;20461;-68
2022/06/29 11:54:38;;;;;;;33.83;31.53;;;29.50;55.90;;;;;;4971488;28;20474;-68
2022/06/29 11:57:11;;;;;;;37.37;35.30;;;28.80;57.30;;;;;;4971003;28;20482;-68
2022/06/29 11:59:39;;;;;;;33.07;30.97;;;28.40;58.30;;;;;;4971259;28;20557;-68
2022/06/29 12:02:07;;;;;;;35.90;33.70;;;28.40;58.40;;;;;;4970313;28;20471;-68
2022/06/29 12:04:35;;;;;;;34.90;32.60;;;28.50;58.80;;;;;;4972483;28;21017;-68
2022/06/29 12:07:07;;;;;;;37.00;34.60;;;28.90;58.80;;;;;;4971174;28;20485;-68
2022/06/29 12:09:35;;;;;;;32.60;30.50;;;29.50;57.50;;;;;;4970593;28;20534;-68
2022/06/29 12:12:04;;;;;;;33.73;31.83;;;29.80;55.50;;;;;;4970233;28;20590;-68
2022/06/29 12:14:31;;;;;;;35.90;33.60;;;30.10;54.20;;;;;;4961135;28;20486;-68
2022/06/29 12:16:58;;;;;;;32.77;30.67;;;29.80;54.80;;;;;;4971316;28;20479;-68
2022/06/29 12:19:25;;;;;;;36.93;34.50;;;29.80;55.20;;;;;;4969021;28;20577;-68
2022/06/29 12:21:53;;;;;;;33.17;30.83;;;29.90;54.80;;;;;;4968206;28;20886;-68
2022/06/29 12:24:21;;;;;;;32.53;30.43;;;30.00;54.80;;;;;;4961454;28;20810;-68
2022/06/29 12:26:48;;;;;;;33.17;31.13;;;30.20;54.30;;;;;;4971049;28;20467;-68
2022/06/29 12:29:16;;;;;;;35.20;33.10;;;30.10;54.80;;;;;;4969770;28;20463;-68
2022/06/29 12:31:44;;;;;;;34.97;32.90;;;30.10;55.30;;;;;;4971483;28;20465;-68
2022/06/29 12:34:12;;;;;;;33.37;31.23;;;30.00;54.80;;;;;;4970747;28;20464;-68
2022/06/29 12:36:40;;;;;;;33.77;31.87;;;29.90;54.60;;;;;;4970825;28;20985;-68
2022/06/29 12:39:08;;;;;;;37.60;35.30;;;29.70;54.40;;;;;;4970162;28;20973;-68
2022/06/29 12:41:36;;;;;;;31.93;30.13;;;29.30;55.00;;;;;;4970742;28;20474;-68
2022/06/29 12:44:04;;;;;;;31.63;29.73;;;29.30;55.70;;;;;;4970909;28;20963;-68
2022/06/29 12:46:33;;;;;;;31.40;29.50;;;29.40;55.00;;;;;;4969366;28;20554;-68
2022/06/29 12:49:01;;;;;;;32.10;30.20;;;29.40;55.20;;;;;;4970343;28;20459;-68
2022/06/29 12:51:28;;;;;;;36.67;34.40;;;29.50;55.50;;;;;;4968367;28;20455;-68
2022/06/29 12:53:55;;;;;;;33.40;31.40;;;29.70;55.70;;;;;;4970492;28;21276;-68
2022/06/29 12:56:22;;;;;;;35.23;33.23;;;29.60;54.80;;;;;;4969365;28;20515;-68
2022/06/29 12:58:49;;;;;;;35.57;33.27;;;29.50;55.50;;;;;;4970810;28;20491;-69
2022/06/29 13:01:16;;;;;;;34.60;32.30;;;29.40;55.90;;;;;;4968992;28;20459;-71
2022/06/29 13:03:45;;;;;;;36.43;34.23;;;29.50;55.90;;;;;;4970809;28;21169;-70
2022/06/29 13:06:12;;;;;;;32.47;30.50;;;29.40;55.50;;;;;;4969476;28;20461;-70
2022/06/29 13:08:39;;;;;;;34.87;32.87;;;29.00;55.60;;;;;;4969264;28;20518;-71
2022/06/29 13:11:06;;;;;;;32.33;30.20;;;28.90;56.10;;;;;;4963069;28;20991;-70
2022/06/29 13:13:33;;;;;;;31.87;29.97;;;29.00;55.90;;;;;;4971004;28;20552;-70
2022/06/29 13:16:00;;;;;;;34.00;32.00;;;29.30;56.40;;;;;;4969567;28;20886;-70
2022/06/29 13:18:27;;;;;;;33.63;31.63;;;29.60;55.80;;;;;;4969956;28;20579;-70
2022/06/29 13:20:55;;;;;;;36.73;34.83;;;29.90;55.00;;;;;;4969555;28;20458;-71
2022/06/29 13:23:22;;;;;;;34.80;32.70;;;29.80;53.90;;;;;;4969727;28;20542;-70
2022/06/29 13:25:49;;;;;;;35.70;33.70;;;29.50;54.60;;;;;;4969452;28;20959;-71
2022/06/29 13:28:17;;;;;;;35.20;33.13;;;29.60;54.50;;;;;;4969793;28;21442;-70